Anatone, WA

4:53 AM PDT on August 25, 2016 (GMT -0700)
Montgomery Ridge Road | | Change Station

Elev 3300 ft 46.12 °N, 117.01 °W | Updated 9 seconds ago

Clear
Clear
50.4 °F
Feels Like 50.4 °F
N
2.2
Wind Variable Wind from WNW
Gusts 4.0 mph

Today
High -- | Low -- °F
--% Chance of Precip.
Yesterday
High -- | Low -- °F
Precip. -- in
Pressure 30.10 in
Visibility 10.0 miles
Clouds Clear
Dew Point 39 °F
Humidity 64%
Rainfall 0.00 in
Snow Depth Not available.
6:00 AM 7:38 PM
Last Quarter, 46% visible
METAR KLWS 251056Z AUTO 12004KT 10SM CLR 15/04 A3013 RMK AO2 SLP193 T01500044
Pressure 30.10 in
Visibility 10.0 miles
Clouds Clear
Dew Point 39 °F
Humidity 64%
Rainfall 0.00 in
Snow Depth Not available.
6:00 AM 7:38 PM
Last Quarter, 46% visible
METAR KLWS 251056Z AUTO 12004KT 10SM CLR 15/04 A3013 RMK AO2 SLP193 T01500044

10-Day Weather Forecast

Almanac

Astronomy

Aug. 25, 2016 Rise Set
Actual Time
Civil Twilight
Nautical Twilight
Astronomical Twilight
Moon
Length of Visible Light
Length of Day
Tomorrow will be .
, % of the Moon is Illuminated

Today's Extremes

State Highs State Lows

Community

WunderPhotos

Upload Photos

1,934,821 photos uploaded!

WunderBlog® & News

Nearby

Air Quality

  Air Quality AQ Index Pollutant
Not available.

Snow Depth

Station Depth Elevation

Earthquake Activity

City Distance Mag. Time & Date
Minimum magnitude displayed is 2.5.

Coastal Water Temperatures

Place Temperature

Stations

Nearby Weather Stations

Station Location Temp. Windchill Dew Point Humidity Wind Precip. Elev Updated Type
                   

Watches & Warnings

There are currently no watches in effect.